Time;durP1;ratioP1;P1;durP2;ratioP2;P2;SDS_P1;SDS_P2;PMS_P1;PMS_P2;Temp;Humidity;BMP_temperature;BMP_pressure;BME280_temperature;BME280_humidity;BME280_pressure;Samples;Min_cycle;Max_cycle;Signal;HPM_P1;HPM_P2
2023/04/21 00:01:52;;;;;;;17.83;10.75;;;7.00;99.90;;;;;;5054152;28;20021;-76
2023/04/21 00:04:18;;;;;;;15.60;10.18;;;7.00;99.90;;;;;;5054245;28;20017;-76
2023/04/21 00:06:44;;;;;;;16.10;10.10;;;7.00;99.90;;;;;;5054033;28;20017;-76
2023/04/21 00:09:10;;;;;;;16.83;11.23;;;7.10;99.90;;;;;;5054099;28;20048;-77
2023/04/21 00:11:36;;;;;;;17.50;10.35;;;7.00;99.90;;;;;;5055339;28;20386;-76
2023/04/21 00:14:01;;;;;;;17.83;10.68;;;7.00;99.90;;;;;;5055438;28;20025;-76
2023/04/21 00:16:27;;;;;;;20.00;12.45;;;7.00;99.90;;;;;;5055100;28;20041;-77
2023/04/21 00:18:52;;;;;;;21.15;12.68;;;7.00;99.90;;;;;;5054105;28;20048;-75
2023/04/21 00:21:18;;;;;;;17.85;11.80;;;7.10;99.90;;;;;;5079597;28;20063;-76
2023/04/21 00:23:46;;;;;;;16.92;9.73;;;7.10;99.90;;;;;;5095385;28;20026;-75
2023/04/21 00:26:11;;;;;;;15.98;9.75;;;7.20;99.90;;;;;;5094399;28;20124;-76
2023/04/21 00:28:37;;;;;;;19.05;9.73;;;7.30;99.90;;;;;;5095199;28;20099;-76
2023/04/21 00:31:03;;;;;;;17.42;9.32;;;7.30;99.90;;;;;;5093819;28;20021;-76
2023/04/21 00:33:28;;;;;;;17.85;8.88;;;7.40;99.90;;;;;;5095094;28;20451;-76
2023/04/21 00:35:55;;;;;;;11.60;8.52;;;7.50;99.90;;;;;;5095108;28;20024;-75
2023/04/21 00:38:21;;;;;;;14.35;8.57;;;7.60;99.90;;;;;;5095152;28;20059;-76
2023/04/21 00:40:47;;;;;;;17.88;8.60;;;7.80;94.50;;;;;;5095152;28;20059;-76
2023/04/21 00:43:12;;;;;;;15.05;8.00;;;8.00;90.10;;;;;;5095057;28;20526;-76
2023/04/21 00:45:38;;;;;;;16.10;8.95;;;8.10;87.50;;;;;;5094902;28;20146;-76
2023/04/21 00:48:03;;;;;;;14.73;8.90;;;8.10;84.60;;;;;;5093585;28;20111;-76
2023/04/21 00:50:29;;;;;;;13.68;8.50;;;8.20;83.10;;;;;;5094684;28;20020;-76
2023/04/21 00:52:56;;;;;;;14.00;8.98;;;8.30;80.60;;;;;;5093559;28;20027;-76
2023/04/21 00:55:22;;;;;;;15.18;8.43;;;8.40;78.10;;;;;;5094169;28;20461;-76
2023/04/21 00:57:49;;;;;;;14.60;8.95;;;8.50;77.30;;;;;;5093122;28;20035;-76
2023/04/21 01:00:15;;;;;;;13.52;8.93;;;8.50;76.80;;;;;;5093223;28;20465;-76
2023/04/21 01:02:41;;;;;;;13.10;8.07;;;8.50;75.50;;;;;;5093220;28;20030;-76
2023/04/21 01:05:07;;;;;;;14.98;9.05;;;8.50;75.40;;;;;;5093384;28;20088;-76
2023/04/21 01:07:34;;;;;;;11.90;8.25;;;8.50;74.70;;;;;;5094515;28;20020;-76
2023/04/21 01:10:00;;;;;;;13.15;8.82;;;8.50;74.40;;;;;;5093312;28;20104;-76
2023/04/21 01:12:26;;;;;;;14.15;9.18;;;8.50;75.40;;;;;;5093127;28;20111;-75
2023/04/21 01:14:52;;;;;;;15.68;8.93;;;8.40;75.70;;;;;;5093081;28;20392;-76
2023/04/21 01:17:17;;;;;;;13.15;8.82;;;8.40;76.00;;;;;;5094256;28;20032;-76
2023/04/21 01:19:44;;;;;;;12.98;9.45;;;8.30;76.20;;;;;;5093080;28;20022;-76
2023/04/21 01:22:11;;;;;;;13.93;8.75;;;8.30;76.80;;;;;;5093072;28;20046;-75
2023/04/21 01:24:42;;;;;;;13.45;8.73;;;8.20;76.60;;;;;;5094118;28;20020;-76
2023/04/21 01:27:10;;;;;;;13.82;9.73;;;8.10;77.20;;;;;;5094126;28;20076;-77
2023/04/21 01:29:36;;;;;;;13.32;9.07;;;8.10;77.80;;;;;;5094138;28;20020;-76
2023/04/21 01:32:07;;;;;;;16.48;9.35;;;8.00;78.30;;;;;;5091194;28;20127;-76
2023/04/21 01:34:33;;;;;;;15.88;9.88;;;8.00;79.90;;;;;;5072548;28;20032;-77
2023/04/21 01:36:58;;;;;;;15.13;9.27;;;7.90;80.40;;;;;;5072385;28;20044;-76
2023/04/21 01:39:24;;;;;;;12.57;8.90;;;7.80;79.90;;;;;;5073776;28;20021;-77
2023/04/21 01:41:50;;;;;;;17.00;9.38;;;7.80;79.10;;;;;;5072387;28;20021;-76
2023/04/21 01:44:16;;;;;;;18.55;9.75;;;7.70;80.30;;;;;;5072249;28;20493;-76
2023/04/21 01:46:41;;;;;;;15.77;9.30;;;7.70;80.60;;;;;;5072183;28;20025;-76
2023/04/21 01:49:07;;;;;;;16.42;9.30;;;7.70;82.20;;;;;;5072454;28;20469;-76
2023/04/21 01:51:33;;;;;;;13.93;9.85;;;7.60;82.80;;;;;;5073541;28;20479;-76
2023/04/21 01:53:58;;;;;;;13.48;9.30;;;7.50;83.20;;;;;;5072233;28;20024;-76
2023/04/21 01:56:24;;;;;;;13.57;9.77;;;7.50;84.10;;;;;;5073476;28;20039;-76
2023/04/21 01:58:52;;;;;;;16.73;9.88;;;7.40;84.50;;;;;;5073410;28;20027;-75
2023/04/21 02:01:17;;;;;;;17.75;10.23;;;7.40;85.20;;;;;;5072499;28;20840;-75
2023/04/21 02:03:44;;;;;;;16.30;10.88;;;7.30;85.40;;;;;;5073421;28;20074;-77
2023/04/21 02:06:10;;;;;;;16.73;10.90;;;7.30;86.00;;;;;;5071214;28;20107;-76
2023/04/21 02:08:36;;;;;;;16.52;10.93;;;7.30;86.80;;;;;;5071962;28;20112;-76
2023/04/21 02:11:01;;;;;;;15.52;10.50;;;7.20;87.60;;;;;;5072082;28;20032;-76
2023/04/21 02:13:27;;;;;;;17.17;11.07;;;7.20;89.20;;;;;;5073342;28;20021;-77
2023/04/21 02:15:52;;;;;;;17.05;10.50;;;7.10;90.60;;;;;;5073314;28;20027;-76
2023/04/21 02:18:19;;;;;;;17.42;11.38;;;7.00;91.80;;;;;;5073143;28;20028;-76
2023/04/21 02:20:44;;;;;;;18.80;11.27;;;6.90;91.40;;;;;;5071989;28;20473;-76
2023/04/21 02:23:10;;;;;;;20.05;10.40;;;6.90;92.20;;;;;;5071979;28;20115;-76
2023/04/21 02:25:35;;;;;;;17.00;10.57;;;6.80;92.40;;;;;;5073259;28;20024;-76
2023/04/21 02:28:01;;;;;;;16.35;10.30;;;6.80;93.30;;;;;;5073182;28;20025;-76
2023/04/21 02:30:27;;;;;;;19.92;10.27;;;6.80;93.50;;;;;;5071822;28;20048;-76
2023/04/21 02:32:52;;;;;;;15.45;10.18;;;6.70;93.40;;;;;;5073007;28;20121;-77
2023/04/21 02:35:18;;;;;;;23.63;12.15;;;6.70;93.30;;;;;;5071855;28;20020;-76
2023/04/21 02:37:44;;;;;;;18.92;11.63;;;6.70;93.80;;;;;;5072968;28;20042;-76
2023/04/21 02:40:10;;;;;;;16.95;11.20;;;6.60;94.60;;;;;;5071763;28;20090;-76
2023/04/21 02:42:35;;;;;;;14.75;11.38;;;6.60;95.70;;;;;;5072957;28;20020;-76
2023/04/21 02:45:01;;;;;;;28.85;14.07;;;6.50;96.60;;;;;;5086136;28;20035;-76
2023/04/21 02:47:26;;;;;;;24.80;12.75;;;6.50;97.50;;;;;;5091886;28;20020;-77
2023/04/21 02:49:52;;;;;;;23.63;12.85;;;6.40;98.30;;;;;;5093275;28;20060;-75
2023/04/21 02:52:17;;;;;;;19.13;11.48;;;6.40;99.30;;;;;;5093105;28;20032;-77
2023/04/21 02:54:43;;;;;;;15.75;11.50;;;6.30;99.90;;;;;;5093011;28;20024;-77
2023/04/21 02:57:09;;;;;;;20.95;13.27;;;6.20;99.90;;;;;;5092928;28;20439;-77
2023/04/21 02:59:35;;;;;;;18.20;11.68;;;6.20;99.90;;;;;;5091756;28;20035;-76
2023/04/21 03:02:00;;;;;;;17.23;11.40;;;6.10;99.90;;;;;;5093030;28;20043;-76
2023/04/21 03:04:26;;;;;;;20.80;11.38;;;6.00;99.90;;;;;;5093209;28;20052;-75
2023/04/21 03:06:52;;;;;;;20.58;11.63;;;6.00;99.90;;;;;;5092901;28;20024;-77
2023/04/21 03:09:17;;;;;;;23.65;12.60;;;5.90;99.90;;;;;;5091806;28;20422;-76
2023/04/21 03:11:43;;;;;;;28.67;14.82;;;5.80;99.90;;;;;;5093052;28;20025;-75
2023/04/21 03:14:08;;;;;;;23.90;13.05;;;5.80;99.90;;;;;;5091735;28;20114;-77
2023/04/21 03:16:34;;;;;;;19.70;12.88;;;5.70;99.90;;;;;;5092900;28;20032;-76
2023/04/21 03:19:00;;;;;;;18.60;11.00;;;5.70;99.90;;;;;;5095105;28;20494;-76
2023/04/21 03:21:25;;;;;;;69.97;27.80;;;5.70;99.90;;;;;;5096368;28;20031;-76
2023/04/21 03:23:51;;;;;;;21.02;12.82;;;5.60;99.90;;;;;;5096343;28;20055;-76
2023/04/21 03:26:17;;;;;;;21.67;11.38;;;5.60;99.90;;;;;;5095087;28;20100;-76
2023/04/21 03:28:43;;;;;;;20.60;11.55;;;5.60;99.90;;;;;;5094877;28;20442;-77
2023/04/21 03:31:08;;;;;;;17.15;11.57;;;5.60;99.90;;;;;;5096325;28;20028;-76
2023/04/21 03:33:34;;;;;;;21.15;11.63;;;5.60;99.90;;;;;;5096040;28;20079;-76
2023/04/21 03:36:00;;;;;;;22.55;12.65;;;5.50;99.90;;;;;;5094770;28;20062;-76
2023/04/21 03:38:28;;;;;;;31.52;16.08;;;5.50;99.90;;;;;;5094790;28;20020;-75
2023/04/21 03:40:53;;;;;;;32.88;17.23;;;5.40;99.90;;;;;;5096313;28;20380;-76
2023/04/21 03:43:19;;;;;;;25.77;14.38;;;5.30;99.90;;;;;;5094809;28;20021;-75
2023/04/21 03:45:44;;;;;;;36.47;16.15;;;5.30;99.90;;;;;;5096116;28;20016;-76
2023/04/21 03:48:10;;;;;;;30.70;14.18;;;5.30;99.90;;;;;;5094828;28;20024;-76
2023/04/21 03:50:37;;;;;;;21.95;12.52;;;5.30;99.90;;;;;;5095968;28;20099;-76
2023/04/21 03:53:02;;;;;;;27.90;12.88;;;5.30;99.90;;;;;;5094764;28;20047;-76
2023/04/21 03:55:28;;;;;;;23.98;11.00;;;5.20;99.90;;;;;;5094743;28;20056;-75
2023/04/21 03:57:54;;;;;;;16.92;10.30;;;5.30;99.90;;;;;;5095837;28;20541;-75
2023/04/21 04:00:20;;;;;;;14.40;11.48;;;5.10;99.90;;;;;;5094631;28;20023;-76
2023/04/21 04:02:45;;;;;;;20.13;11.82;;;5.10;99.90;;;;;;5094624;28;20093;-76
2023/04/21 04:05:11;;;;;;;22.42;11.75;;;5.10;99.90;;;;;;5095812;28;20590;-76
2023/04/21 04:07:37;;;;;;;22.27;11.75;;;5.10;99.90;;;;;;5095710;28;20028;-75
2023/04/21 04:10:03;;;;;;;18.05;11.68;;;5.20;99.90;;;;;;5095918;28;20028;-75
2023/04/21 04:12:29;;;;;;;18.77;11.38;;;5.30;99.90;;;;;;5095567;28;20035;-75
2023/04/21 04:14:55;;;;;;;16.10;11.50;;;5.30;99.90;;;;;;5095622;28;20024;-75
2023/04/21 04:17:21;;;;;;;21.85;11.25;;;5.40;99.90;;;;;;5095357;28;20043;-77
2023/04/21 04:19:46;;;;;;;19.25;11.63;;;5.50;99.90;;;;;;5094380;28;20031;-76
2023/04/21 04:22:12;;;;;;;17.15;11.18;;;5.60;99.90;;;;;;5094247;28;20020;-76
2023/04/21 04:24:37;;;;;;;23.63;12.10;;;5.70;99.90;;;;;;5095568;28;20530;-76
2023/04/21 04:27:04;;;;;;;19.25;13.27;;;5.80;99.90;;;;;;5095303;28;20026;-77
2023/04/21 04:29:31;;;;;;;19.20;10.95;;;5.80;99.90;;;;;;5093235;28;20082;-75
2023/04/21 04:31:57;;;;;;;18.45;10.90;;;5.80;99.90;;;;;;5094965;28;20047;-76
2023/04/21 04:34:23;;;;;;;17.98;11.57;;;5.90;99.90;;;;;;5095237;28;20025;-76
2023/04/21 04:36:49;;;;;;;17.92;10.70;;;6.00;99.90;;;;;;5093712;28;20081;-76
2023/04/21 04:39:17;;;;;;;17.10;11.85;;;6.00;99.90;;;;;;5093763;28;20051;-76
2023/04/21 04:41:43;;;;;;;22.27;12.88;;;6.10;99.90;;;;;;5094869;28;20032;-75
2023/04/21 04:44:10;;;;;;;17.02;11.32;;;6.20;99.90;;;;;;5094962;28;20024;-76
2023/04/21 04:46:35;;;;;;;22.55;11.85;;;6.20;99.90;;;;;;5094914;28;20016;-76
2023/04/21 04:49:01;;;;;;;18.77;10.90;;;6.30;99.90;;;;;;5094903;28;20362;-76
2023/04/21 04:51:27;;;;;;;23.33;11.73;;;6.30;99.90;;;;;;5094907;28;20024;-76
2023/04/21 04:53:52;;;;;;;22.65;11.68;;;6.40;99.90;;;;;;5094888;28;20440;-76
2023/04/21 04:56:18;;;;;;;17.77;10.63;;;6.50;99.90;;;;;;5094690;28;20040;-76
2023/04/21 04:58:46;;;;;;;15.75;10.88;;;6.50;99.90;;;;;;5093419;28;20069;-77
2023/04/21 05:01:16;;;;;;;14.45;10.30;;;6.60;99.90;;;;;;5094784;28;20060;-76
2023/04/21 05:03:43;;;;;;;20.88;11.75;;;6.70;99.90;;;;;;5080162;28;20056;-77
2023/04/21 05:06:09;;;;;;;17.23;11.65;;;6.80;99.90;;;;;;5071591;28;20503;-77
2023/04/21 05:08:35;;;;;;;18.70;11.77;;;7.00;99.90;;;;;;5071478;28;20108;-76
2023/04/21 05:11:01;;;;;;;20.38;12.07;;;7.10;99.90;;;;;;5073300;28;20070;-76
2023/04/21 05:13:26;;;;;;;16.48;10.85;;;7.30;99.90;;;;;;5074087;28;20024;-75
2023/04/21 05:16:02;;;;;;;18.88;11.45;;;7.40;99.90;;;;;;5073197;28;20104;-75
2023/04/21 05:18:28;;;;;;;16.58;11.40;;;7.50;99.90;;;;;;5072286;28;20028;-76
2023/04/21 05:20:53;;;;;;;18.58;11.45;;;7.70;99.90;;;;;;5075464;28;20044;-77
2023/04/21 05:23:19;;;;;;;16.40;10.00;;;7.90;99.90;;;;;;5073745;28;20474;-77
2023/04/21 05:25:45;;;;;;;17.35;10.48;;;8.00;99.90;;;;;;5071957;28;20428;-77
2023/04/21 05:28:11;;;;;;;16.35;10.40;;;8.20;99.90;;;;;;5072067;28;20020;-77
2023/04/21 05:30:36;;;;;;;20.17;10.52;;;8.40;99.90;;;;;;5071803;28;20044;-76
2023/04/21 05:33:02;;;;;;;29.70;11.57;;;8.60;99.90;;;;;;5071482;28;20063;-77
2023/04/21 05:35:31;;;;;;;19.52;10.60;;;8.90;90.90;;;;;;5072289;28;20090;-76
2023/04/21 05:37:56;;;;;;;22.08;10.82;;;9.20;83.30;;;;;;5072161;28;20482;-76
2023/04/21 05:40:22;;;;;;;24.42;10.32;;;9.50;80.80;;;;;;5073037;28;20047;-76
2023/04/21 05:42:47;;;;;;;18.63;10.23;;;9.70;78.90;;;;;;5072185;28;20117;-77
2023/04/21 05:45:13;;;;;;;16.63;9.90;;;9.90;77.20;;;;;;5073722;28;20024;-76
2023/04/21 05:47:39;;;;;;;21.88;10.80;;;10.10;75.70;;;;;;5073458;28;20028;-77
2023/04/21 05:50:06;;;;;;;19.20;10.25;;;10.30;74.50;;;;;;5073460;28;20028;-76
2023/04/21 05:52:31;;;;;;;18.05;10.05;;;10.50;73.70;;;;;;5072151;28;20420;-77
2023/04/21 05:55:00;;;;;;;14.10;9.70;;;10.70;72.80;;;;;;5073002;28;20020;-76
2023/04/21 05:57:26;;;;;;;15.70;9.38;;;10.90;71.40;;;;;;5073012;28;20036;-77
2023/04/21 05:59:51;;;;;;;16.05;8.95;;;11.10;70.50;;;;;;5071911;28;20496;-76
2023/04/21 06:02:17;;;;;;;17.13;9.73;;;11.20;70.50;;;;;;5072810;28;20029;-77
2023/04/21 06:04:43;;;;;;;18.08;9.45;;;11.40;68.80;;;;;;5071812;28;20024;-77
2023/04/21 06:07:12;;;;;;;16.45;8.90;;;11.50;66.20;;;;;;5073049;28;20028;-76
2023/04/21 06:09:39;;;;;;;13.25;8.90;;;11.70;66.20;;;;;;5072883;28;20086;-78
2023/04/21 06:12:05;;;;;;;18.27;9.02;;;11.80;65.20;;;;;;5072064;28;20031;-77
2023/04/21 06:14:30;;;;;;;15.85;8.80;;;11.90;65.40;;;;;;5071552;28;20036;-76
2023/04/21 06:16:56;;;;;;;37.40;11.70;;;12.00;63.50;;;;;;5072805;28;20120;-76
2023/04/21 06:19:22;;;;;;;13.27;9.20;;;12.20;63.10;;;;;;5071843;28;20040;-77
2023/04/21 06:21:47;;;;;;;13.00;8.48;;;12.30;62.00;;;;;;5071563;28;20044;-77
2023/04/21 06:24:13;;;;;;;11.60;7.88;;;12.50;62.80;;;;;;5071164;28;20035;-76
2023/04/21 06:26:39;;;;;;;24.98;8.65;;;12.70;62.60;;;;;;5071747;28;20016;-77
2023/04/21 06:29:04;;;;;;;18.65;7.93;;;12.80;62.30;;;;;;5072919;28;20480;-76
2023/04/21 06:31:30;;;;;;;15.57;8.43;;;13.00;61.50;;;;;;5071352;28;20025;-77
2023/04/21 06:33:56;;;;;;;12.82;7.88;;;13.10;60.90;;;;;;5072590;28;20178;-76
2023/04/21 06:36:21;;;;;;;16.60;8.52;;;13.30;59.50;;;;;;5071190;28;20033;-77
2023/04/21 06:38:47;;;;;;;15.48;8.02;;;13.20;57.60;;;;;;5071263;28;20048;-77
2023/04/21 06:41:13;;;;;;;15.85;6.80;;;13.30;58.60;;;;;;5068889;28;20116;-77
2023/04/21 06:43:39;;;;;;;15.48;7.03;;;13.40;57.70;;;;;;5071762;28;20067;-78
2023/04/21 06:46:04;;;;;;;11.05;7.38;;;13.40;58.00;;;;;;5071563;28;20067;-78
2023/04/21 06:48:30;;;;;;;11.45;7.13;;;13.60;58.00;;;;;;5071600;28;20032;-78
2023/04/21 06:50:56;;;;;;;11.50;7.03;;;13.60;56.70;;;;;;5072678;28;20024;-77
2023/04/21 06:53:21;;;;;;;13.38;6.80;;;13.80;57.00;;;;;;5072897;28;20016;-77
2023/04/21 06:55:47;;;;;;;12.00;8.05;;;13.90;56.50;;;;;;5076721;28;20549;-78
2023/04/21 06:58:14;;;;;;;12.00;6.80;;;13.70;54.50;;;;;;5075031;28;20557;-76
2023/04/21 07:00:40;;;;;;;12.43;7.10;;;13.80;54.70;;;;;;5075367;28;20392;-78
2023/04/21 07:03:06;;;;;;;12.73;7.80;;;13.70;54.80;;;;;;5076436;28;20024;-78
2023/04/21 07:05:31;;;;;;;12.20;7.53;;;13.80;55.20;;;;;;5076468;28;20456;-77
2023/04/21 07:07:58;;;;;;;12.15;7.25;;;13.80;55.90;;;;;;5075260;28;20020;-78
2023/04/21 07:10:27;;;;;;;16.25;7.53;;;13.90;55.50;;;;;;5087235;28;20063;-78
2023/04/21 07:12:54;;;;;;;12.85;7.18;;;14.10;56.00;;;;;;5096690;28;20032;-78
2023/04/21 07:15:20;;;;;;;13.57;7.13;;;14.10;54.80;;;;;;5096687;28;20032;-78
2023/04/21 07:17:45;;;;;;;10.43;6.65;;;14.20;54.60;;;;;;5096458;28;20385;-77
2023/04/21 07:20:11;;;;;;;12.07;7.40;;;14.20;54.10;;;;;;5096615;28;20051;-77
2023/04/21 07:22:37;;;;;;;13.75;7.97;;;14.30;54.30;;;;;;5096413;28;20027;-77
2023/04/21 07:25:06;;;;;;;12.93;7.40;;;14.40;54.60;;;;;;5096399;28;20035;-77
2023/04/21 07:27:35;;;;;;;11.25;8.10;;;14.50;54.80;;;;;;5096203;28;20025;-77
2023/04/21 07:30:02;;;;;;;10.80;7.35;;;14.70;54.10;;;;;;5095178;28;20027;-77
2023/04/21 07:32:28;;;;;;;15.05;7.75;;;14.70;53.40;;;;;;5090835;28;20490;-77
2023/04/21 07:34:53;;;;;;;12.82;7.80;;;15.00;53.00;;;;;;5075662;28;20035;-78
2023/04/21 07:37:19;;;;;;;13.30;8.63;;;15.00;52.90;;;;;;5074049;28;20024;-78
2023/04/21 07:39:45;;;;;;;12.18;7.90;;;15.10;52.80;;;;;;5073853;28;20493;-78
2023/04/21 07:42:10;;;;;;;13.65;7.35;;;15.20;52.50;;;;;;5073874;28;20036;-78
2023/04/21 07:44:36;;;;;;;11.65;7.07;;;15.30;51.70;;;;;;5075905;28;20070;-78
2023/04/21 07:47:02;;;;;;;8.35;7.40;;;15.30;51.00;;;;;;5073757;28;20025;-78
2023/04/21 07:49:27;;;;;;;19.63;8.85;;;15.30;49.80;;;;;;5072251;28;20021;-78
2023/04/21 07:51:53;;;;;;;9.45;6.53;;;15.40;51.10;;;;;;5073442;28;20056;-78
2023/04/21 07:54:18;;;;;;;11.48;7.72;;;15.70;50.50;;;;;;5073203;28;20067;-77
2023/04/21 07:56:44;;;;;;;9.68;7.78;;;15.80;49.60;;;;;;5073427;28;20036;-79
2023/04/21 07:59:10;;;;;;;11.10;7.97;;;15.90;49.50;;;;;;5073792;28;20505;-79
2023/04/21 08:01:35;;;;;;;9.77;6.72;;;15.90;46.30;;;;;;5074789;28;20529;-78
2023/04/21 08:04:01;;;;;;;13.75;7.47;;;15.80;45.70;;;;;;5075461;28;20484;-77
2023/04/21 08:06:27;;;;;;;14.60;8.38;;;15.90;47.60;;;;;;5074396;28;20029;-77
2023/04/21 08:08:54;;;;;;;11.05;7.22;;;16.00;47.60;;;;;;5074255;28;20383;-78
2023/04/21 08:11:21;;;;;;;11.02;7.57;;;16.10;47.50;;;;;;5073165;28;20028;-79
2023/04/21 08:13:47;;;;;;;10.43;6.75;;;16.10;45.90;;;;;;5072310;28;20031;-78
2023/04/21 08:16:12;;;;;;;17.83;8.00;;;16.10;45.80;;;;;;5074883;28;20024;-78
2023/04/21 08:18:38;;;;;;;12.40;7.05;;;16.20;46.10;;;;;;5073626;28;20024;-79
2023/04/21 08:21:04;;;;;;;12.20;8.18;;;16.20;46.80;;;;;;5073594;28;20486;-79
2023/04/21 08:23:29;;;;;;;13.85;8.70;;;16.20;45.00;;;;;;5074098;28;20562;-78
2023/04/21 08:25:55;;;;;;;13.15;8.80;;;16.30;46.40;;;;;;5072926;28;20021;-77
2023/04/21 08:28:21;;;;;;;10.10;7.55;;;16.30;45.60;;;;;;5072851;28;20013;-77
2023/04/21 08:30:46;;;;;;;27.70;8.93;;;16.30;42.10;;;;;;5071563;28;20028;-77
2023/04/21 08:33:12;;;;;;;11.85;7.82;;;16.40;42.40;;;;;;5071112;28;20048;-79
2023/04/21 08:35:39;;;;;;;16.38;9.50;;;16.40;44.00;;;;;;5072920;28;20482;-78
2023/04/21 08:38:07;;;;;;;10.90;8.55;;;16.40;44.80;;;;;;5072986;28;20032;-77
2023/04/21 08:40:35;;;;;;;15.40;8.57;;;16.40;44.50;;;;;;5073386;28;20066;-79
2023/04/21 08:43:01;;;;;;;16.95;9.23;;;16.40;43.20;;;;;;5074760;28;20195;-78
2023/04/21 08:45:27;;;;;;;11.63;7.10;;;16.50;44.40;;;;;;5073264;28;20444;-77
2023/04/21 08:47:54;;;;;;;12.25;8.07;;;16.30;42.80;;;;;;5072426;28;20017;-77
2023/04/21 08:50:25;;;;;;;12.05;7.70;;;16.30;43.70;;;;;;5073744;28;20028;-77
2023/04/21 08:52:51;;;;;;;8.27;7.07;;;16.40;44.00;;;;;;5074194;28;20046;-79
2023/04/21 08:55:17;;;;;;;12.52;7.68;;;16.70;45.00;;;;;;5074647;28;20103;-78
2023/04/21 08:57:43;;;;;;;8.52;6.97;;;16.80;43.40;;;;;;5074300;28;20085;-77
2023/04/21 09:00:09;;;;;;;12.23;9.40;;;16.80;41.80;;;;;;5074473;28;20024;-78
2023/04/21 09:02:58;;;;;;;13.55;9.40;;;16.70;41.00;;;;;;5072010;28;20024;-78
2023/04/21 09:05:29;;;;;;;22.33;12.00;;;16.70;40.90;;;;;;5074087;28;20092;-77
2023/04/21 09:08:12;;;;;;;14.98;8.82;;;16.60;40.60;;;;;;5074332;28;20469;-77
2023/04/21 09:10:45;;;;;;;16.58;9.20;;;16.50;42.00;;;;;;5072728;28;20126;-77
2023/04/21 09:13:10;;;;;;;;;;;16.40;41.30;;;;;;5073355;28;20109;-77
2023/04/21 09:15:41;;;;;;;14.05;9.38;;;16.60;41.90;;;;;;5073689;28;19958;-77
2023/04/21 09:18:33;;;;;;;13.23;9.15;;;16.60;42.10;;;;;;5073990;28;20036;-77
2023/04/21 09:21:08;;;;;;;15.63;10.43;;;16.70;42.40;;;;;;5074018;28;20028;-77
2023/04/21 09:23:48;;;;;;;14.00;9.35;;;16.70;40.40;;;;;;5073869;28;20103;-78
2023/04/21 09:26:15;;;;;;;13.60;9.07;;;16.50;40.20;;;;;;5074019;28;20112;-78
2023/04/21 09:28:45;;;;;;;13.98;8.95;;;16.30;40.70;;;;;;5072357;28;20020;-77
2023/04/21 09:31:34;;;;;;;13.73;8.20;;;16.10;40.50;;;;;;5074043;28;20070;-77
2023/04/21 09:34:00;;;;;;;15.00;9.65;;;16.00;40.30;;;;;;5073594;28;20045;-78
2023/04/21 09:36:30;;;;;;;11.43;8.63;;;15.90;40.60;;;;;;5073775;28;20036;-77
2023/04/21 09:39:00;;;;;;;6.93;5.97;;;16.10;42.60;;;;;;5073629;28;20401;-79
2023/04/21 09:41:26;;;;;;;7.60;5.78;;;16.10;39.50;;;;;;5072339;28;20027;-77
2023/04/21 09:43:52;;;;;;;11.35;8.10;;;16.20;39.00;;;;;;5073679;28;20017;-78
2023/04/21 09:46:20;;;;;;;12.48;7.50;;;16.40;39.70;;;;;;5072340;28;20020;-78
2023/04/21 09:48:46;;;;;;;8.07;6.57;;;16.30;40.90;;;;;;5073639;28;20012;-78
2023/04/21 09:51:13;;;;;;;8.38;5.50;;;16.40;41.20;;;;;;5073087;28;20021;-79
2023/04/21 09:53:40;;;;;;;7.45;4.75;;;16.40;40.90;;;;;;5073649;28;20035;-78
2023/04/21 09:56:11;;;;;;;8.45;6.55;;;16.20;38.20;;;;;;5072107;28;20123;-78
2023/04/21 09:58:46;;;;;;;7.45;5.82;;;16.20;40.20;;;;;;5073673;28;20020;-77
2023/04/21 10:01:13;;;;;;;10.30;5.85;;;16.20;40.00;;;;;;5072720;28;20032;-76
2023/04/21 10:03:39;;;;;;;7.05;5.32;;;16.40;39.80;;;;;;5072629;28;20441;-78
2023/04/21 10:06:06;;;;;;;8.25;5.28;;;16.30;40.30;;;;;;5071294;28;20024;-79
2023/04/21 10:08:32;;;;;;;7.63;5.78;;;15.90;39.10;;;;;;5072636;28;20104;-78
2023/04/21 10:10:59;;;;;;;7.32;5.65;;;15.90;41.50;;;;;;5071275;28;20070;-78
2023/04/21 10:13:26;;;;;;;8.88;6.05;;;15.70;40.90;;;;;;5073087;28;20020;-78
2023/04/21 10:16:06;;;;;;;6.80;5.82;;;15.50;41.60;;;;;;5071763;28;20111;-77
2023/04/21 10:18:36;;;;;;;8.82;5.60;;;15.20;42.50;;;;;;5071836;28;20036;-77
2023/04/21 10:21:09;;;;;;;11.63;6.80;;;15.30;42.80;;;;;;5072752;28;20074;-78
2023/04/21 10:23:40;;;;;;;10.50;7.88;;;15.70;44.70;;;;;;5071880;28;20485;-77
2023/04/21 10:26:19;;;;;;;10.38;7.65;;;16.10;45.70;;;;;;5073222;28;20546;-77
2023/04/21 10:28:50;;;;;;;10.43;7.55;;;16.40;45.20;;;;;;5073847;28;20013;-77
2023/04/21 10:31:52;;;;;;;10.80;6.70;;;16.30;43.10;;;;;;5075508;28;20054;-77
2023/04/21 10:34:20;;;;;;;8.38;6.75;;;16.60;43.90;;;;;;5076939;28;20501;-78
2023/04/21 10:36:45;;;;;;;6.53;5.50;;;16.80;43.20;;;;;;5077030;28;20043;-79
2023/04/21 10:39:27;;;;;;;9.70;5.97;;;16.90;42.60;;;;;;5074429;28;20111;-77
2023/04/21 10:42:21;;;;;;;9.07;5.40;;;16.50;41.30;;;;;;5072700;28;20029;-79
2023/04/21 10:44:56;;;;;;;7.75;5.13;;;16.30;41.80;;;;;;5072718;28;20788;-79
2023/04/21 10:47:37;;;;;;;7.95;5.35;;;16.60;41.60;;;;;;5072978;28;20090;-79
2023/04/21 10:50:16;;;;;;;5.70;5.15;;;16.70;41.30;;;;;;5073156;28;20017;-79
2023/04/21 10:53:09;;;;;;;6.20;5.00;;;16.90;41.50;;;;;;5073045;28;20596;-78
2023/04/21 10:55:34;;;;;;;;;;;16.90;42.00;;;;;;5073037;28;20101;-77
2023/04/21 10:58:06;;;;;;;7.28;5.40;;;16.80;42.00;;;;;;5072356;28;19990;-79
2023/04/21 11:00:32;;;;;;;7.47;5.25;;;16.70;41.60;;;;;;5070206;28;20032;-77
2023/04/21 11:03:02;;;;;;;6.28;4.88;;;16.60;42.10;;;;;;5053624;28;20359;-77
2023/04/21 11:05:31;;;;;;;6.38;4.93;;;16.30;41.80;;;;;;5072381;28;20489;-78
2023/04/21 11:08:04;;;;;;;9.45;5.22;;;16.30;40.90;;;;;;5071389;28;20427;-78
2023/04/21 11:10:41;;;;;;;7.55;5.25;;;16.20;42.30;;;;;;5073024;28;20033;-77
2023/04/21 11:13:07;;;;;;;7.03;5.30;;;16.40;42.10;;;;;;5072763;28;20024;-79
2023/04/21 11:15:32;;;;;;;6.63;5.75;;;16.80;43.00;;;;;;5075076;28;20032;-77
2023/04/21 11:17:58;;;;;;;8.80;4.97;;;17.00;42.80;;;;;;5073250;28;20230;-79
2023/04/21 11:20:24;;;;;;;8.32;5.80;;;17.20;41.90;;;;;;5074823;28;20027;-79
2023/04/21 11:22:52;;;;;;;7.63;4.93;;;17.40;40.70;;;;;;5073278;28;20028;-80
2023/04/21 11:25:18;;;;;;;7.50;4.90;;;17.60;41.40;;;;;;5074244;28;20020;-79
2023/04/21 11:27:53;;;;;;;8.85;5.47;;;17.70;41.20;;;;;;5073158;28;20058;-79
2023/04/21 11:30:19;;;;;;;5.35;3.85;;;17.70;40.30;;;;;;5073676;28;20499;-77
2023/04/21 11:32:45;;;;;;;6.38;4.40;;;17.30;37.40;;;;;;5075013;28;20087;-79
2023/04/21 11:35:11;;;;;;;5.88;5.28;;;16.90;37.60;;;;;;5074973;28;20069;-80
2023/04/21 11:37:36;;;;;;;8.45;4.85;;;16.50;37.50;;;;;;5074161;28;20040;-77
2023/04/21 11:40:05;;;;;;;6.82;4.57;;;16.30;38.10;;;;;;5073224;28;20909;-77
2023/04/21 11:42:30;;;;;;;5.35;4.85;;;16.30;38.30;;;;;;5074219;28;20021;-79
2023/04/21 11:44:56;;;;;;;5.35;4.20;;;16.40;39.00;;;;;;5074661;28;20027;-80
2023/04/21 11:47:24;;;;;;;6.45;4.40;;;16.40;39.40;;;;;;5074439;28;20431;-79
2023/04/21 11:49:55;;;;;;;5.07;4.22;;;16.20;39.00;;;;;;5074390;28;20024;-77
2023/04/21 11:52:28;;;;;;;6.97;4.57;;;16.20;39.80;;;;;;5075672;28;20025;-79
2023/04/21 11:55:05;;;;;;;24.08;6.57;;;16.30;39.90;;;;;;5074314;28;20031;-77
2023/04/21 11:57:32;;;;;;;9.25;4.15;;;16.70;41.30;;;;;;5075427;28;20028;-77
2023/04/21 11:59:59;;;;;;;6.50;4.03;;;16.90;40.00;;;;;;5072815;28;20087;-78
2023/04/21 12:02:30;;;;;;;7.60;4.57;;;17.10;40.50;;;;;;5072675;28;20021;-80
2023/04/21 12:04:59;;;;;;;7.38;4.20;;;17.20;39.40;;;;;;5074053;28;20035;-78
2023/04/21 12:07:25;;;;;;;5.43;3.80;;;17.40;38.30;;;;;;5070782;28;20043;-79
2023/04/21 12:09:52;;;;;;;7.78;3.97;;;17.70;39.10;;;;;;5072482;28;20017;-78
2023/04/21 12:12:17;;;;;;;5.05;3.92;;;18.00;38.00;;;;;;5073520;28;20470;-79
2023/04/21 12:14:44;;;;;;;5.40;4.45;;;17.70;37.70;;;;;;5073278;28;20035;-77
2023/04/21 12:17:10;;;;;;;7.43;4.30;;;17.30;38.40;;;;;;5070296;28;20398;-77
2023/04/21 12:19:41;;;;;;;5.95;3.92;;;17.00;38.20;;;;;;5073586;28;20029;-77
2023/04/21 12:22:12;;;;;;;4.28;3.90;;;17.10;38.40;;;;;;5072491;28;20120;-77
2023/04/21 12:24:38;;;;;;;4.47;3.53;;;17.00;37.40;;;;;;5075218;28;20028;-79
2023/04/21 12:27:05;;;;;;;7.22;3.72;;;16.70;36.50;;;;;;5075164;28;20085;-79
2023/04/21 12:29:33;;;;;;;4.07;3.63;;;16.80;37.60;;;;;;5073885;28;20485;-80
2023/04/21 12:31:59;;;;;;;4.13;3.00;;;16.60;35.60;;;;;;5073491;28;20514;-78
2023/04/21 12:34:25;;;;;;;3.85;3.40;;;16.70;36.50;;;;;;5075135;28;20029;-79
2023/04/21 12:36:50;;;;;;;3.33;3.00;;;16.70;36.50;;;;;;5073647;28;20033;-78
2023/04/21 12:39:17;;;;;;;4.68;4.18;;;16.90;36.30;;;;;;5073885;28;20021;-79
2023/04/21 12:41:43;;;;;;;5.53;3.25;;;17.00;35.80;;;;;;5073659;28;20039;-80